Time,TemperatureF,DewpointF,PressureIn,WindDirection,WindDirectionDegrees,WindSpeedMPH,WindSpeedGustMPH,Humidity,HourlyPrecipIn,Conditions,Clouds,dailyrainin,SoftwareType,DateUTC
2013-01-19 00:03:00,29.3,23.3,30.21,SSE,165,0.0,0.0,78,0.00,,,0.00,WUHU216WMR968SP,2013-01-19 08:03:00,
2013-01-19 00:08:00,29.1,23.1,30.21,SSE,165,0.0,0.0,78,0.00,,,0.00,WUHU216WMR968SP,2013-01-19 08:08:00,
2013-01-19 00:13:00,28.9,22.9,30.21,SSE,165,0.0,0.0,78,0.00,,,0.00,WUHU216WMR968SP,2013-01-19 08:13:00,
2013-01-19 00:18:00,28.9,22.9,30.21,SSE,165,0.0,0.0,78,0.00,,,0.00,WUHU216WMR968SP,2013-01-19 08:18:00,
2013-01-19 00:23:00,28.9,22.9,30.21,SSE,165,0.0,0.0,78,0.00,,,0.00,WUHU216WMR968SP,2013-01-19 08:23:00,
2013-01-19 00:28:00,28.9,22.9,30.21,SSE,165,0.0,0.0,78,0.00,,,0.00,WUHU216WMR968SP,2013-01-19 08:28:00,
2013-01-19 00:33:00,29.1,23.1,30.21,SSE,165,0.0,0.0,78,0.00,,,0.00,WUHU216WMR968SP,2013-01-19 08:33:00,
2013-01-19 00:38:00,29.1,23.1,30.21,SSE,165,0.0,0.0,78,0.00,,,0.00,WUHU216WMR968SP,2013-01-19 08:38:00,
2013-01-19 00:43:00,29.1,23.1,30.21,SSE,165,0.0,0.0,78,0.00,,,0.00,WUHU216WMR968SP,2013-01-19 08:43:00,
2013-01-19 00:48:00,29.1,23.1,30.21,SSE,165,0.0,0.0,78,0.00,,,0.00,WUHU216WMR968SP,2013-01-19 08:48:00,
2013-01-19 00:53:00,29.1,23.1,30.21,SSE,165,0.0,0.0,78,0.00,,,0.00,WUHU216WMR968SP,2013-01-19 08:53:00,
2013-01-19 00:58:00,29.1,23.1,30.21,SSE,165,0.0,0.0,78,0.00,,,0.00,WUHU216WMR968SP,2013-01-19 08:58:00,
2013-01-19 01:03:00,29.3,23.3,30.21,SSE,165,0.0,0.0,78,0.00,,,0.00,WUHU216WMR968SP,2013-01-19 09:03:00,
2013-01-19 01:08:00,29.3,23.3,30.21,SSE,165,0.0,0.0,78,0.00,,,0.00,WUHU216WMR968SP,2013-01-19 09:08:00,
2013-01-19 01:13:00,29.1,23.1,30.21,SSE,165,0.0,0.0,78,0.00,,,0.00,WUHU216WMR968SP,2013-01-19 09:13:00,
2013-01-19 01:18:00,29.1,23.1,30.21,SSE,165,0.0,0.0,78,0.00,,,0.00,WUHU216WMR968SP,2013-01-19 09:18:00,
2013-01-19 01:23:00,29.3,23.3,30.21,SSE,165,0.0,0.0,78,0.00,,,0.00,WUHU216WMR968SP,2013-01-19 09:23:00,
2013-01-19 01:28:00,29.5,23.5,30.21,SSE,165,0.0,0.0,78,0.00,,,0.00,WUHU216WMR968SP,2013-01-19 09:28:00,
2013-01-19 01:33:00,29.5,23.5,30.21,SSE,165,0.0,0.0,78,0.00,,,0.00,WUHU216WMR968SP,2013-01-19 09:33:00,
2013-01-19 01:38:00,29.5,23.5,30.21,SSE,165,0.0,0.0,78,0.00,,,0.00,WUHU216WMR968SP,2013-01-19 09:38:00,
2013-01-19 01:43:00,29.5,23.5,30.21,SSE,165,0.0,0.0,78,0.00,,,0.00,WUHU216WMR968SP,2013-01-19 09:43:00,
2013-01-19 01:48:00,29.5,23.5,30.21,SSE,165,0.0,0.0,78,0.00,,,0.00,WUHU216WMR968SP,2013-01-19 09:48:00,
2013-01-19 02:34:00,29.3,23.3,30.24,SSE,165,0.0,0.0,78,0.00,,,0.00,WUHU216WMR968SP,2013-01-19 10:34:00,
2013-01-19 02:39:00,29.3,23.3,30.24,SSE,165,0.0,0.0,78,0.00,,,0.00,WUHU216WMR968SP,2013-01-19 10:39:00,
2013-01-19 02:44:00,29.3,23.3,30.24,SSE,165,0.0,0.0,78,0.00,,,0.00,WUHU216WMR968SP,2013-01-19 10:44:00,
2013-01-19 02:49:00,29.1,23.1,30.24,SSE,165,0.0,0.0,78,0.00,,,0.00,WUHU216WMR968SP,2013-01-19 10:49:00,
2013-01-19 02:54:00,29.3,23.3,30.24,SSE,165,0.0,0.0,78,0.00,,,0.00,WUHU216WMR968SP,2013-01-19 10:54:00,
2013-01-19 02:59:00,29.1,23.1,30.24,SSE,165,0.0,0.0,78,0.00,,,0.00,WUHU216WMR968SP,2013-01-19 10:59:00,
2013-01-19 03:04:00,29.1,23.1,30.24,SSE,165,0.0,0.0,78,0.00,,,0.00,WUHU216WMR968SP,2013-01-19 11:04:00,
2013-01-19 03:09:00,29.1,23.1,30.24,SSE,165,0.0,0.0,78,0.00,,,0.00,WUHU216WMR968SP,2013-01-19 11:09:00,
2013-01-19 03:14:00,28.9,22.9,30.24,SSE,165,0.0,0.0,78,0.00,,,0.00,WUHU216WMR968SP,2013-01-19 11:14:00,
2013-01-19 03:20:00,28.9,22.9,30.24,SSE,165,0.0,0.0,78,0.00,,,0.00,WUHU216WMR968SP,2013-01-19 11:20:00,
2013-01-19 03:26:00,28.9,22.9,30.24,SSE,165,0.0,0.0,78,0.00,,,0.00,WUHU216WMR968SP,2013-01-19 11:26:00,
2013-01-19 03:32:00,28.9,22.9,30.24,SSE,165,0.0,0.0,78,0.00,,,0.00,WUHU216WMR968SP,2013-01-19 11:32:00,
2013-01-19 03:38:00,28.9,22.9,30.24,SSE,165,0.0,0.0,78,0.00,,,0.00,WUHU216WMR968SP,2013-01-19 11:38:00,
2013-01-19 03:44:00,29.1,23.1,30.24,SSE,165,0.0,0.0,78,0.00,,,0.00,WUHU216WMR968SP,2013-01-19 11:44:00,
2013-01-19 03:50:00,28.9,22.9,30.24,SSE,165,0.0,0.0,78,0.00,,,0.00,WUHU216WMR968SP,2013-01-19 11:50:00,
2013-01-19 03:56:00,28.9,22.9,30.24,SSE,165,0.0,0.0,78,0.00,,,0.00,WUHU216WMR968SP,2013-01-19 11:56:00,
2013-01-19 04:02:00,28.9,22.9,30.24,SSE,165,0.0,0.0,78,0.00,,,0.00,WUHU216WMR968SP,2013-01-19 12:02:00,
2013-01-19 04:08:00,28.8,22.8,30.24,SSE,165,0.0,0.0,78,0.00,,,0.00,WUHU216WMR968SP,2013-01-19 12:08:00,
2013-01-19 04:14:00,28.8,22.8,30.24,SSE,165,0.0,0.0,78,0.00,,,0.00,WUHU216WMR968SP,2013-01-19 12:14:00,
2013-01-19 04:20:00,28.8,22.8,30.21,SSE,165,0.0,0.0,78,0.00,,,0.00,WUHU216WMR968SP,2013-01-19 12:20:00,
2013-01-19 04:26:00,28.8,22.8,30.21,SSE,165,0.0,0.0,78,0.00,,,0.00,WUHU216WMR968SP,2013-01-19 12:26:00,
2013-01-19 04:32:00,28.9,22.9,30.21,SSE,165,0.0,0.0,78,0.00,,,0.00,WUHU216WMR968SP,2013-01-19 12:32:00,
2013-01-19 04:48:00,28.8,22.5,30.21,SSE,165,0.0,0.0,77,0.00,,,0.00,WUHU216WMR968SP,2013-01-19 12:48:00,
2013-01-19 04:53:00,28.8,22.5,30.21,SSE,165,0.0,0.0,77,0.00,,,0.00,WUHU216WMR968SP,2013-01-19 12:53:00,
2013-01-19 04:58:00,28.8,22.5,30.21,SSE,165,0.0,0.0,77,0.00,,,0.00,WUHU216WMR968SP,2013-01-19 12:58:00,
2013-01-19 05:03:00,28.6,22.3,30.24,SSE,165,0.0,0.0,77,0.00,,,0.00,WUHU216WMR968SP,2013-01-19 13:03:00,
2013-01-19 05:08:00,28.6,22.3,30.24,SSE,165,0.0,3.1,77,0.00,,,0.00,WUHU216WMR968SP,2013-01-19 13:08:00,
2013-01-19 05:13:00,28.6,22.3,30.24,SSE,165,0.0,3.1,77,0.00,,,0.00,WUHU216WMR968SP,2013-01-19 13:13:00,
2013-01-19 05:18:00,28.8,22.5,30.24,SSE,165,0.0,0.0,77,0.00,,,0.00,WUHU216WMR968SP,2013-01-19 13:18:00,
2013-01-19 05:23:00,28.8,22.5,30.24,SSE,165,0.0,0.0,77,0.00,,,0.00,WUHU216WMR968SP,2013-01-19 13:23:00,
2013-01-19 05:28:00,28.8,22.5,30.24,South,184,2.2,3.1,77,0.00,,,0.00,WUHU216WMR968SP,2013-01-19 13:28:00,
2013-01-19 05:33:00,28.6,22.3,30.24,South,184,0.0,3.1,77,0.00,,,0.00,WUHU216WMR968SP,2013-01-19 13:33:00,
2013-01-19 05:38:00,28.4,22.4,30.24,South,184,0.0,2.7,78,0.00,,,0.00,WUHU216WMR968SP,2013-01-19 13:38:00,
2013-01-19 05:43:00,28.0,22.0,30.24,South,184,0.0,0.0,78,0.00,,,0.00,WUHU216WMR968SP,2013-01-19 13:43:00,
2013-01-19 05:48:00,27.9,21.9,30.24,South,184,0.0,0.0,78,0.00,,,0.00,WUHU216WMR968SP,2013-01-19 13:48:00,
2013-01-19 05:53:00,27.7,21.8,30.24,South,184,0.0,0.0,78,0.00,,,0.00,WUHU216WMR968SP,2013-01-19 13:53:00,
2013-01-19 05:58:00,27.7,21.8,30.24,South,184,0.0,3.1,78,0.00,,,0.00,WUHU216WMR968SP,2013-01-19 13:58:00,
2013-01-19 06:03:00,27.5,21.6,30.24,South,184,0.0,3.1,78,0.00,,,0.00,WUHU216WMR968SP,2013-01-19 14:03:00,
2013-01-19 06:08:00,27.1,21.2,30.24,South,184,0.0,0.0,78,0.00,,,0.00,WUHU216WMR968SP,2013-01-19 14:08:00,
2013-01-19 06:13:00,26.8,20.9,30.24,South,189,2.7,3.1,78,0.00,,,0.00,WUHU216WMR968SP,2013-01-19 14:13:00,
2013-01-19 06:18:00,26.6,20.7,30.24,South,189,0.0,3.1,78,0.00,,,0.00,WUHU216WMR968SP,2013-01-19 14:18:00,
2013-01-19 06:23:00,26.6,20.7,30.24,South,189,0.0,3.1,78,0.00,,,0.00,WUHU216WMR968SP,2013-01-19 14:23:00,
2013-01-19 06:28:00,26.6,20.7,30.24,South,189,0.0,2.2,78,0.00,,,0.00,WUHU216WMR968SP,2013-01-19 14:28:00,
2013-01-19 06:33:00,26.8,20.9,30.24,South,189,0.0,0.0,78,0.00,,,0.00,WUHU216WMR968SP,2013-01-19 14:33:00,
2013-01-19 06:38:00,26.8,20.9,30.24,South,189,0.0,0.0,78,0.00,,,0.00,WUHU216WMR968SP,2013-01-19 14:38:00,
2013-01-19 06:43:00,26.6,20.7,30.24,South,190,2.2,3.1,78,0.00,,,0.00,WUHU216WMR968SP,2013-01-19 14:43:00,
2013-01-19 06:48:00,26.8,20.9,30.24,South,190,0.0,3.1,78,0.00,,,0.00,WUHU216WMR968SP,2013-01-19 14:48:00,
2013-01-19 06:53:00,26.8,20.9,30.24,South,190,0.0,2.7,78,0.00,,,0.00,WUHU216WMR968SP,2013-01-19 14:53:00,
2013-01-19 06:58:00,27.0,21.1,30.24,South,190,0.0,0.0,78,0.00,,,0.00,WUHU216WMR968SP,2013-01-19 14:58:00,
2013-01-19 07:03:00,27.0,21.1,30.24,South,190,0.0,0.0,78,0.00,,,0.00,WUHU216WMR968SP,2013-01-19 15:03:00,
2013-01-19 07:08:00,27.1,21.2,30.24,South,190,0.0,0.0,78,0.00,,,0.00,WUHU216WMR968SP,2013-01-19 15:08:00,
2013-01-19 07:13:00,27.1,21.2,30.24,South,190,0.0,0.0,78,0.00,,,0.00,WUHU216WMR968SP,2013-01-19 15:13:00,
2013-01-19 07:18:00,27.1,21.2,30.24,South,190,0.0,0.0,78,0.00,,,0.00,WUHU216WMR968SP,2013-01-19 15:18:00,
2013-01-19 07:23:00,27.0,21.1,30.24,South,190,0.0,0.0,78,0.00,,,0.00,WUHU216WMR968SP,2013-01-19 15:23:00,
2013-01-19 07:28:00,26.8,20.9,30.24,South,190,0.0,0.0,78,0.00,,,0.00,WUHU216WMR968SP,2013-01-19 15:28:00,
2013-01-19 07:33:00,27.0,21.1,30.24,South,190,0.0,0.0,78,0.00,,,0.00,WUHU216WMR968SP,2013-01-19 15:33:00,
2013-01-19 07:38:00,27.0,21.1,30.24,SSE,150,0.0,2.7,78,0.00,,,0.00,WUHU216WMR968SP,2013-01-19 15:38:00,
2013-01-19 07:43:00,27.1,21.2,30.24,SSE,150,0.0,2.7,78,0.00,,,0.00,WUHU216WMR968SP,2013-01-19 15:43:00,
2013-01-19 07:48:00,27.0,21.1,30.24,SSE,149,0.0,0.0,78,0.00,,,0.00,WUHU216WMR968SP,2013-01-19 15:48:00,
2013-01-19 07:53:00,27.0,21.1,30.24,SSE,150,0.0,0.0,78,0.00,,,0.00,WUHU216WMR968SP,2013-01-19 15:53:00,
2013-01-19 07:58:00,27.1,21.2,30.24,SSE,148,0.0,0.0,78,0.00,,,0.00,WUHU216WMR968SP,2013-01-19 15:58:00,
2013-01-19 08:03:00,27.0,21.1,30.24,SSE,150,0.0,0.0,78,0.00,,,0.00,WUHU216WMR968SP,2013-01-19 16:03:00,
2013-01-19 08:08:00,27.0,21.1,30.24,SSE,148,2.7,3.1,78,0.00,,,0.00,WUHU216WMR968SP,2013-01-19 16:08:00,
2013-01-19 08:13:00,26.6,20.7,30.24,SSE,149,2.7,3.6,78,0.00,,,0.00,WUHU216WMR968SP,2013-01-19 16:13:00,
2013-01-19 08:18:00,26.6,20.7,30.27,SSE,148,0.0,3.6,78,0.00,,,0.00,WUHU216WMR968SP,2013-01-19 16:18:00,
2013-01-19 08:23:00,26.6,20.7,30.27,SSE,148,2.2,3.1,78,0.00,,,0.00,WUHU216WMR968SP,2013-01-19 16:23:00,
2013-01-19 08:28:00,26.6,20.7,30.27,SSE,147,2.2,3.1,78,0.00,,,0.00,WUHU216WMR968SP,2013-01-19 16:28:00,
2013-01-19 08:33:00,26.8,20.9,30.27,SSE,148,0.0,3.1,78,0.00,,,0.00,WUHU216WMR968SP,2013-01-19 16:33:00,
2013-01-19 08:38:00,26.6,20.7,30.27,SSE,147,0.0,2.2,78,0.00,,,0.00,WUHU216WMR968SP,2013-01-19 16:38:00,
2013-01-19 08:43:00,26.8,20.9,30.27,SSE,148,0.0,0.0,78,0.00,,,0.00,WUHU216WMR968SP,2013-01-19 16:43:00,
2013-01-19 08:48:00,27.0,21.1,30.27,SSE,147,0.0,2.2,78,0.00,,,0.00,WUHU216WMR968SP,2013-01-19 16:48:00,
2013-01-19 08:53:00,27.1,21.2,30.27,SSE,148,0.0,2.7,78,0.00,,,0.00,WUHU216WMR968SP,2013-01-19 16:53:00,
2013-01-19 08:58:00,27.0,21.1,30.27,SSE,148,0.0,3.1,78,0.00,,,0.00,WUHU216WMR968SP,2013-01-19 16:58:00,
2013-01-19 09:03:00,27.0,21.1,30.27,SSE,148,0.0,3.1,78,0.00,,,0.00,WUHU216WMR968SP,2013-01-19 17:03:00,
2013-01-19 09:08:00,27.0,21.1,30.27,SSE,149,0.0,3.1,78,0.00,,,0.00,WUHU216WMR968SP,2013-01-19 17:08:00,
2013-01-19 09:13:00,27.0,21.1,30.27,SSE,148,0.0,0.0,78,0.00,,,0.00,WUHU216WMR968SP,2013-01-19 17:13:00,
2013-01-19 09:19:00,27.0,21.1,30.27,SSE,147,0.0,0.0,78,0.00,,,0.00,WUHU216WMR968SP,2013-01-19 17:19:00,
2013-01-19 09:24:00,27.1,21.2,30.27,SE,146,0.0,0.0,78,0.00,,,0.00,WUHU216WMR968SP,2013-01-19 17:24:00,
2013-01-19 09:29:00,27.3,21.4,30.27,SSE,147,0.0,0.0,78,0.00,,,0.00,WUHU216WMR968SP,2013-01-19 17:29:00,
2013-01-19 09:34:00,27.5,21.6,30.27,SSE,148,0.0,0.0,78,0.00,,,0.00,WUHU216WMR968SP,2013-01-19 17:34:00,
2013-01-19 09:39:00,27.5,21.6,30.27,SSE,149,0.0,0.0,78,0.00,,,0.00,WUHU216WMR968SP,2013-01-19 17:39:00,
2013-01-19 09:44:00,27.5,21.6,30.27,SSE,147,0.0,0.0,78,0.00,,,0.00,WUHU216WMR968SP,2013-01-19 17:44:00,
2013-01-19 09:49:00,27.7,21.8,30.27,SSE,149,0.0,0.0,78,0.00,,,0.00,WUHU216WMR968SP,2013-01-19 17:49:00,
2013-01-19 09:54:00,27.3,21.4,30.27,SSE,148,0.0,0.0,78,0.00,,,0.00,WUHU216WMR968SP,2013-01-19 17:54:00,
2013-01-19 09:59:00,27.5,21.6,30.27,SSE,148,0.0,0.0,78,0.00,,,0.00,WUHU216WMR968SP,2013-01-19 17:59:00,
2013-01-19 10:04:00,27.5,21.6,30.27,SSE,149,0.0,0.0,78,0.00,,,0.00,WUHU216WMR968SP,2013-01-19 18:04:00,
2013-01-19 10:09:00,27.9,21.9,30.27,SSE,147,0.0,0.0,78,0.00,,,0.00,WUHU216WMR968SP,2013-01-19 18:09:00,
2013-01-19 10:14:00,28.0,22.0,30.27,SSE,147,0.0,3.1,78,0.00,,,0.00,WUHU216WMR968SP,2013-01-19 18:14:00,
2013-01-19 10:19:00,28.4,22.4,30.27,SSE,148,0.0,3.1,78,0.00,,,0.00,WUHU216WMR968SP,2013-01-19 18:19:00,
2013-01-19 10:24:00,28.6,22.6,30.27,SSE,147,0.0,0.0,78,0.00,,,0.00,WUHU216WMR968SP,2013-01-19 18:24:00,
2013-01-19 10:29:00,28.8,22.8,30.27,SSE,148,0.0,0.0,78,0.00,,,0.00,WUHU216WMR968SP,2013-01-19 18:29:00,
2013-01-19 10:34:00,28.9,22.9,30.27,SSE,148,0.0,0.0,78,0.00,,,0.00,WUHU216WMR968SP,2013-01-19 18:34:00,
2013-01-19 10:39:00,29.3,23.3,30.27,SSE,148,0.0,0.0,78,0.00,,,0.00,WUHU216WMR968SP,2013-01-19 18:39:00,
2013-01-19 10:44:00,29.3,23.3,30.27,SSE,148,0.0,0.0,78,0.00,,,0.00,WUHU216WMR968SP,2013-01-19 18:44:00,
2013-01-19 10:49:00,29.5,23.5,30.27,SSE,147,0.0,0.0,78,0.00,,,0.00,WUHU216WMR968SP,2013-01-19 18:49:00,
2013-01-19 10:54:00,29.8,23.8,30.27,SSE,147,0.0,0.0,78,0.00,,,0.00,WUHU216WMR968SP,2013-01-19 18:54:00,
2013-01-19 11:00:00,30.4,24.4,30.27,SSE,148,0.0,0.0,78,0.00,,,0.00,WUHU216WMR968SP,2013-01-19 19:00:00,
2013-01-19 11:05:00,30.2,24.2,30.27,WSW,243,0.0,3.6,78,0.00,,,0.00,WUHU216WMR968SP,2013-01-19 19:05:00,
2013-01-19 11:10:00,30.4,24.4,30.27,SW,223,0.0,3.6,78,0.00,,,0.00,WUHU216WMR968SP,2013-01-19 19:10:00,
2013-01-19 11:15:00,30.4,24.4,30.27,SW,222,0.0,3.1,78,0.00,,,0.00,WUHU216WMR968SP,2013-01-19 19:15:00,
2013-01-19 11:20:00,30.6,24.6,30.27,SW,222,0.0,2.7,78,0.00,,,0.00,WUHU216WMR968SP,2013-01-19 19:20:00,
2013-01-19 11:26:00,30.9,24.9,30.27,SW,222,0.0,2.7,78,0.00,,,0.00,WUHU216WMR968SP,2013-01-19 19:26:00,
2013-01-19 11:31:00,30.9,24.9,30.27,SW,222,0.0,3.1,78,0.00,,,0.00,WUHU216WMR968SP,2013-01-19 19:31:00,
2013-01-19 11:36:00,30.9,24.9,30.27,SW,222,2.2,3.1,78,0.00,,,0.00,WUHU216WMR968SP,2013-01-19 19:36:00,
2013-01-19 11:41:00,31.1,25.1,30.27,SW,222,2.2,3.1,78,0.00,,,0.00,WUHU216WMR968SP,2013-01-19 19:41:00,
2013-01-19 11:47:00,31.1,25.1,30.24,SW,223,0.0,3.1,78,0.00,,,0.00,WUHU216WMR968SP,2013-01-19 19:47:00,
2013-01-19 11:52:00,31.3,25.3,30.24,SW,223,0.0,3.1,78,0.00,,,0.00,WUHU216WMR968SP,2013-01-19 19:52:00,
2013-01-19 11:57:00,31.5,25.5,30.24,SW,223,0.0,0.0,78,0.00,,,0.00,WUHU216WMR968SP,2013-01-19 19:57:00,
2013-01-19 12:03:00,31.6,25.5,30.24,SW,223,0.0,0.0,78,0.00,,,0.00,WUHU216WMR968SP,2013-01-19 20:03:00,
2013-01-19 12:08:00,31.6,25.5,30.24,West,268,2.7,3.6,78,0.00,,,0.00,WUHU216WMR968SP,2013-01-19 20:08:00,
2013-01-19 12:13:00,31.8,25.7,30.24,West,272,0.0,4.0,78,0.00,,,0.00,WUHU216WMR968SP,2013-01-19 20:13:00,
2013-01-19 12:19:00,32.0,25.9,30.24,West,272,0.0,4.0,78,0.00,,,0.00,WUHU216WMR968SP,2013-01-19 20:19:00,
2013-01-19 12:24:00,32.2,26.1,30.24,NW,318,2.2,4.0,78,0.00,,,0.00,WUHU216WMR968SP,2013-01-19 20:24:00,
2013-01-19 12:29:00,32.2,26.1,30.24,WNW,302,2.2,4.0,78,0.00,,,0.00,WUHU216WMR968SP,2013-01-19 20:29:00,
2013-01-19 12:34:00,32.2,26.1,30.24,WNW,297,2.2,4.9,78,0.00,,,0.00,WUHU216WMR968SP,2013-01-19 20:34:00,
2013-01-19 12:39:00,32.4,26.3,30.24,WSW,246,0.0,4.9,78,0.00,,,0.00,WUHU216WMR968SP,2013-01-19 20:39:00,
2013-01-19 12:44:00,32.7,26.6,30.24,WNW,293,2.2,4.0,78,0.00,,,0.00,WUHU216WMR968SP,2013-01-19 20:44:00,
2013-01-19 12:49:00,32.9,26.8,30.24,WNW,292,0.0,4.0,78,0.00,,,0.00,WUHU216WMR968SP,2013-01-19 20:49:00,
2013-01-19 12:54:00,32.9,26.8,30.24,West,272,2.7,4.0,78,0.00,,,0.00,WUHU216WMR968SP,2013-01-19 20:54:00,
2013-01-19 12:59:00,33.1,27.0,30.24,NW,304,0.0,4.0,78,0.00,,,0.00,WUHU216WMR968SP,2013-01-19 20:59:00,
2013-01-19 13:04:00,33.3,27.2,30.24,WNW,299,0.0,3.6,78,0.00,,,0.00,WUHU216WMR968SP,2013-01-19 21:04:00,
2013-01-19 13:09:00,33.4,27.3,30.24,West,271,2.2,3.6,78,0.00,,,0.00,WUHU216WMR968SP,2013-01-19 21:09:00,
2013-01-19 13:14:00,33.8,27.7,30.24,WSW,250,0.0,3.1,78,0.00,,,0.00,WUHU216WMR968SP,2013-01-19 21:14:00,
2013-01-19 13:20:00,33.8,27.7,30.24,WNW,303,0.0,3.6,78,0.00,,,0.00,WUHU216WMR968SP,2013-01-19 21:20:00,
2013-01-19 13:25:00,33.6,27.5,30.24,SW,230,3.1,4.0,78,0.00,,,0.00,WUHU216WMR968SP,2013-01-19 21:25:00,
2013-01-19 13:30:00,33.6,27.5,30.24,West,271,0.0,4.9,78,0.00,,,0.00,WUHU216WMR968SP,2013-01-19 21:30:00,
2013-01-19 13:35:00,33.8,27.7,30.24,WSW,255,0.0,4.9,78,0.00,,,0.00,WUHU216WMR968SP,2013-01-19 21:35:00,
2013-01-19 13:41:00,33.8,27.7,30.24,NW,322,3.1,5.4,78,0.00,,,0.00,WUHU216WMR968SP,2013-01-19 21:41:00,
2013-01-19 13:46:00,33.8,27.7,30.24,West,262,2.2,5.4,78,0.00,,,0.00,WUHU216WMR968SP,2013-01-19 21:46:00,
2013-01-19 13:51:00,33.6,27.5,30.24,WSW,252,2.7,5.4,78,0.00,,,0.00,WUHU216WMR968SP,2013-01-19 21:51:00,
2013-01-19 13:56:00,34.0,27.9,30.24,WSW,252,0.0,5.4,78,0.00,,,0.00,WUHU216WMR968SP,2013-01-19 21:56:00,
2013-01-19 14:01:00,33.8,27.7,30.21,West,259,0.0,3.1,78,0.00,,,0.00,WUHU216WMR968SP,2013-01-19 22:01:00,
2013-01-19 14:06:00,33.6,27.5,30.21,West,268,0.0,4.0,78,0.00,,,0.00,WUHU216WMR968SP,2013-01-19 22:06:00,
2013-01-19 14:12:00,33.8,27.7,30.21,WSW,248,0.0,4.0,78,0.00,,,0.00,WUHU216WMR968SP,2013-01-19 22:12:00,
2013-01-19 14:17:00,33.8,27.7,30.21,WNW,295,0.0,3.1,78,0.00,,,0.00,WUHU216WMR968SP,2013-01-19 22:17:00,
2013-01-19 14:22:00,34.0,27.9,30.21,SW,225,2.2,2.7,78,0.00,,,0.00,WUHU216WMR968SP,2013-01-19 22:22:00,
2013-01-19 14:27:00,34.0,27.9,30.21,SW,225,3.1,3.6,78,0.00,,,0.00,WUHU216WMR968SP,2013-01-19 22:27:00,
2013-01-19 14:32:00,34.0,27.9,30.21,WSW,238,2.7,3.6,78,0.00,,,0.00,WUHU216WMR968SP,2013-01-19 22:32:00,
2013-01-19 14:37:00,33.8,27.7,30.21,West,268,2.7,3.6,78,0.00,,,0.00,WUHU216WMR968SP,2013-01-19 22:37:00,
2013-01-19 14:42:00,33.8,27.7,30.21,SW,232,0.0,3.6,78,0.00,,,0.00,WUHU216WMR968SP,2013-01-19 22:42:00,
2013-01-19 14:47:00,33.8,27.7,30.21,SW,218,2.7,4.0,78,0.00,,,0.00,WUHU216WMR968SP,2013-01-19 22:47:00,
2013-01-19 14:53:00,33.8,27.7,30.21,SW,217,2.7,4.0,78,0.00,,,0.00,WUHU216WMR968SP,2013-01-19 22:53:00,
2013-01-19 14:58:00,34.0,27.9,30.21,SW,218,2.7,3.6,78,0.00,,,0.00,WUHU216WMR968SP,2013-01-19 22:58:00,
2013-01-19 15:03:00,33.8,27.7,30.21,SW,218,3.1,3.6,78,0.00,,,0.00,WUHU216WMR968SP,2013-01-19 23:03:00,
2013-01-19 15:08:00,34.0,27.9,30.21,SW,218,2.7,3.6,78,0.00,,,0.00,WUHU216WMR968SP,2013-01-19 23:08:00,
2013-01-19 15:13:00,34.0,27.9,30.21,SW,218,0.0,3.6,78,0.00,,,0.00,WUHU216WMR968SP,2013-01-19 23:13:00,
2013-01-19 15:18:00,34.0,27.9,30.21,SW,219,0.0,2.7,78,0.00,,,0.00,WUHU216WMR968SP,2013-01-19 23:18:00,
2013-01-19 15:24:00,34.2,28.1,30.21,SW,218,0.0,2.7,78,0.00,,,0.00,WUHU216WMR968SP,2013-01-19 23:24:00,
2013-01-19 15:29:00,34.2,28.1,30.21,SW,219,0.0,3.1,78,0.00,,,0.00,WUHU216WMR968SP,2013-01-19 23:29:00,
2013-01-19 15:34:00,34.0,27.9,30.21,SW,218,2.7,3.1,78,0.00,,,0.00,WUHU216WMR968SP,2013-01-19 23:34:00,
2013-01-19 15:39:00,34.0,27.9,30.21,SW,218,2.2,3.6,78,0.00,,,0.00,WUHU216WMR968SP,2013-01-19 23:39:00,
2013-01-19 15:44:00,34.0,27.9,30.21,SW,218,2.2,3.6,78,0.00,,,0.00,WUHU216WMR968SP,2013-01-19 23:44:00,
2013-01-19 15:49:00,33.8,27.7,30.21,SW,219,0.0,3.1,78,0.00,,,0.00,WUHU216WMR968SP,2013-01-19 23:49:00,
2013-01-19 15:54:00,34.0,27.9,30.21,WNW,282,0.0,2.7,78,0.00,,,0.00,WUHU216WMR968SP,2013-01-19 23:54:00,
2013-01-19 15:59:00,33.8,27.7,30.21,WSW,249,0.0,3.6,78,0.00,,,0.00,WUHU216WMR968SP,2013-01-19 23:59:00,
2013-01-19 16:05:00,33.8,27.7,30.21,NW,318,0.0,5.4,78,0.00,,,0.00,WUHU216WMR968SP,2013-01-20 00:05:00,
2013-01-19 16:10:00,33.6,27.5,30.21,NNW,345,0.0,5.4,78,0.00,,,0.00,WUHU216WMR968SP,2013-01-20 00:10:00,
2013-01-19 16:15:00,33.8,27.7,30.21,NW,312,0.0,3.1,78,0.00,,,0.00,WUHU216WMR968SP,2013-01-20 00:15:00,
2013-01-19 16:20:00,33.8,27.7,30.21,WSW,241,0.0,3.1,78,0.00,,,0.00,WUHU216WMR968SP,2013-01-20 00:20:00,
2013-01-19 16:25:00,33.6,27.5,30.21,WSW,240,0.0,0.0,78,0.00,,,0.00,WUHU216WMR968SP,2013-01-20 00:25:00,
2013-01-19 16:30:00,33.6,27.5,30.21,NW,319,0.0,4.9,78,0.00,,,0.00,WUHU216WMR968SP,2013-01-20 00:30:00,
2013-01-19 16:35:00,33.3,27.2,30.21,NNW,327,0.0,4.9,78,0.00,,,0.00,WUHU216WMR968SP,2013-01-20 00:35:00,
2013-01-19 16:40:00,33.3,27.2,30.21,NW,326,0.0,4.0,78,0.00,,,0.00,WUHU216WMR968SP,2013-01-20 00:40:00,
2013-01-19 16:45:00,33.3,27.2,30.21,NNW,327,0.0,0.0,78,0.00,,,0.00,WUHU216WMR968SP,2013-01-20 00:45:00,
2013-01-19 16:50:00,33.3,27.2,30.21,NW,326,0.0,0.0,78,0.00,,,0.00,WUHU216WMR968SP,2013-01-20 00:50:00,
2013-01-19 16:55:00,33.1,27.0,30.21,NW,326,0.0,3.1,78,0.00,,,0.00,WUHU216WMR968SP,2013-01-20 00:55:00,
2013-01-19 17:00:00,32.9,26.8,30.21,NW,326,0.0,3.1,78,0.00,,,0.00,WUHU216WMR968SP,2013-01-20 01:00:00,
2013-01-19 17:05:00,32.7,26.6,30.21,NW,326,0.0,2.2,78,0.00,,,0.00,WUHU216WMR968SP,2013-01-20 01:05:00,
2013-01-19 17:10:00,32.7,26.6,30.21,SW,223,0.0,3.1,78,0.00,,,0.00,WUHU216WMR968SP,2013-01-20 01:10:00,
2013-01-19 17:15:00,32.5,26.4,30.21,SW,223,0.0,3.1,78,0.00,,,0.00,WUHU216WMR968SP,2013-01-20 01:15:00,
2013-01-19 17:20:00,32.2,26.1,30.21,SW,223,0.0,2.7,78,0.00,,,0.00,WUHU216WMR968SP,2013-01-20 01:20:00,
2013-01-19 17:26:00,32.0,25.9,30.21,SW,223,0.0,2.7,78,0.00,,,0.00,WUHU216WMR968SP,2013-01-20 01:26:00,
2013-01-19 17:31:00,32.0,25.9,30.21,SW,223,0.0,2.7,78,0.00,,,0.00,WUHU216WMR968SP,2013-01-20 01:31:00,
2013-01-19 17:36:00,32.0,25.9,30.21,SW,223,0.0,0.0,78,0.00,,,0.00,WUHU216WMR968SP,2013-01-20 01:36:00,
2013-01-19 17:41:00,31.8,25.7,30.21,SW,223,0.0,0.0,78,0.00,,,0.00,WUHU216WMR968SP,2013-01-20 01:41:00,
2013-01-19 17:46:00,31.8,25.7,30.21,SW,223,0.0,0.0,78,0.00,,,0.00,WUHU216WMR968SP,2013-01-20 01:46:00,
2013-01-19 17:52:00,31.6,25.5,30.21,SW,223,0.0,0.0,78,0.00,,,0.00,WUHU216WMR968SP,2013-01-20 01:52:00,
2013-01-19 17:57:00,31.6,25.5,30.21,SW,223,0.0,0.0,78,0.00,,,0.00,WUHU216WMR968SP,2013-01-20 01:57:00,
2013-01-19 18:02:00,31.6,25.5,30.21,SW,223,0.0,0.0,78,0.00,,,0.00,WUHU216WMR968SP,2013-01-20 02:02:00,
2013-01-19 18:07:00,31.6,25.5,30.21,SW,223,0.0,0.0,78,0.00,,,0.00,WUHU216WMR968SP,2013-01-20 02:07:00,
2013-01-19 18:12:00,31.8,25.7,30.21,SW,223,0.0,0.0,78,0.00,,,0.00,WUHU216WMR968SP,2013-01-20 02:12:00,
2013-01-19 18:17:00,31.8,25.7,30.21,SW,225,0.0,0.0,78,0.00,,,0.00,WUHU216WMR968SP,2013-01-20 02:17:00,
2013-01-19 18:22:00,31.8,25.7,30.21,SW,225,0.0,0.0,78,0.00,,,0.00,WUHU216WMR968SP,2013-01-20 02:22:00,
2013-01-19 18:27:00,31.6,25.5,30.21,North,357,0.0,2.7,78,0.00,,,0.00,WUHU216WMR968SP,2013-01-20 02:27:00,
2013-01-19 18:32:00,31.5,25.5,30.24,NNW,345,0.0,2.7,78,0.00,,,0.00,WUHU216WMR968SP,2013-01-20 02:32:00,
2013-01-19 18:37:00,31.3,25.3,30.24,NNW,345,0.0,2.7,78,0.00,,,0.00,WUHU216WMR968SP,2013-01-20 02:37:00,
2013-01-19 18:43:00,31.3,25.3,30.24,NNW,345,0.0,0.0,78,0.00,,,0.00,WUHU216WMR968SP,2013-01-20 02:43:00,
2013-01-19 18:48:00,31.3,25.3,30.24,NNW,345,0.0,0.0,78,0.00,,,0.00,WUHU216WMR968SP,2013-01-20 02:48:00,
2013-01-19 18:53:00,31.1,25.1,30.24,NNW,345,0.0,0.0,78,0.00,,,0.00,WUHU216WMR968SP,2013-01-20 02:53:00,
2013-01-19 18:58:00,31.1,25.1,30.24,NNW,345,0.0,0.0,78,0.00,,,0.00,WUHU216WMR968SP,2013-01-20 02:58:00,
2013-01-19 19:03:00,31.3,25.3,30.24,NNW,335,0.0,0.0,78,0.00,,,0.00,WUHU216WMR968SP,2013-01-20 03:03:00,
2013-01-19 19:08:00,31.1,25.1,30.24,NNW,335,0.0,0.0,78,0.00,,,0.00,WUHU216WMR968SP,2013-01-20 03:08:00,
2013-01-19 19:13:00,31.1,25.1,30.24,West,259,0.0,0.0,78,0.00,,,0.00,WUHU216WMR968SP,2013-01-20 03:13:00,
2013-01-19 19:18:00,31.1,25.1,30.24,West,259,0.0,0.0,78,0.00,,,0.00,WUHU216WMR968SP,2013-01-20 03:18:00,
2013-01-19 19:24:00,31.1,25.1,30.24,West,259,0.0,0.0,78,0.00,,,0.00,WUHU216WMR968SP,2013-01-20 03:24:00,
2013-01-19 19:29:00,31.1,25.1,30.24,West,259,0.0,0.0,78,0.00,,,0.00,WUHU216WMR968SP,2013-01-20 03:29:00,
2013-01-19 19:34:00,31.1,25.1,30.24,West,259,0.0,0.0,78,0.00,,,0.00,WUHU216WMR968SP,2013-01-20 03:34:00,
2013-01-19 19:39:00,31.1,25.1,30.24,West,259,0.0,0.0,78,0.00,,,0.00,WUHU216WMR968SP,2013-01-20 03:39:00,
2013-01-19 19:44:00,31.3,25.3,30.24,West,259,0.0,0.0,78,0.00,,,0.00,WUHU216WMR968SP,2013-01-20 03:44:00,
2013-01-19 19:49:00,31.1,25.1,30.24,West,259,0.0,0.0,78,0.00,,,0.00,WUHU216WMR968SP,2013-01-20 03:49:00,
2013-01-19 19:54:00,31.3,25.3,30.24,West,259,0.0,0.0,78,0.00,,,0.00,WUHU216WMR968SP,2013-01-20 03:54:00,
2013-01-19 19:59:00,31.1,25.1,30.24,West,259,0.0,0.0,78,0.00,,,0.00,WUHU216WMR968SP,2013-01-20 03:59:00,
2013-01-19 20:04:00,31.1,25.1,30.24,West,259,0.0,0.0,78,0.00,,,0.00,WUHU216WMR968SP,2013-01-20 04:04:00,
2013-01-19 20:10:00,31.3,25.3,30.24,West,259,0.0,0.0,78,0.00,,,0.00,WUHU216WMR968SP,2013-01-20 04:10:00,
2013-01-19 20:15:00,31.3,25.3,30.24,West,259,0.0,0.0,78,0.00,,,0.00,WUHU216WMR968SP,2013-01-20 04:15:00,
2013-01-19 20:20:00,31.1,25.1,30.24,West,259,0.0,0.0,78,0.00,,,0.00,WUHU216WMR968SP,2013-01-20 04:20:00,
2013-01-19 20:25:00,31.1,25.1,30.24,West,259,0.0,0.0,78,0.00,,,0.00,WUHU216WMR968SP,2013-01-20 04:25:00,
2013-01-19 20:30:00,31.1,25.1,30.24,West,259,0.0,0.0,78,0.00,,,0.00,WUHU216WMR968SP,2013-01-20 04:30:00,
2013-01-19 20:35:00,31.1,25.1,30.24,West,259,0.0,0.0,78,0.00,,,0.00,WUHU216WMR968SP,2013-01-20 04:35:00,
2013-01-19 20:40:00,31.1,25.1,30.24,West,259,0.0,0.0,78,0.00,,,0.00,WUHU216WMR968SP,2013-01-20 04:40:00,
2013-01-19 20:45:00,30.9,24.9,30.24,West,259,0.0,0.0,78,0.00,,,0.00,WUHU216WMR968SP,2013-01-20 04:45:00,
2013-01-19 20:50:00,30.9,24.9,30.24,West,259,0.0,0.0,78,0.00,,,0.00,WUHU216WMR968SP,2013-01-20 04:50:00,
2013-01-19 20:55:00,30.7,24.7,30.24,West,259,0.0,0.0,78,0.00,,,0.00,WUHU216WMR968SP,2013-01-20 04:55:00,
2013-01-19 21:01:00,30.7,24.7,30.24,West,259,0.0,0.0,78,0.00,,,0.00,WUHU216WMR968SP,2013-01-20 05:01:00,
2013-01-19 21:02:00,30.7,24.7,30.27,West,259,0.0,0.0,78,0.00,,,0.00,WUHU216WMR968SP,2013-01-20 05:02:00,
2013-01-19 21:03:00,30.7,24.7,30.27,West,259,0.0,0.0,78,0.00,,,0.00,WUHU216WMR968SP,2013-01-20 05:03:00,
2013-01-19 21:08:00,30.6,24.6,30.27,West,259,0.0,0.0,78,0.00,,,0.00,WUHU216WMR968SP,2013-01-20 05:08:00,
2013-01-19 21:13:00,30.6,24.6,30.27,West,259,0.0,0.0,78,0.00,,,0.00,WUHU216WMR968SP,2013-01-20 05:13:00,
2013-01-19 21:18:00,30.4,24.4,30.27,West,259,0.0,0.0,78,0.00,,,0.00,WUHU216WMR968SP,2013-01-20 05:18:00,
2013-01-19 21:23:00,30.6,24.6,30.27,West,259,0.0,0.0,78,0.00,,,0.00,WUHU216WMR968SP,2013-01-20 05:23:00,
2013-01-19 21:28:00,30.6,24.6,30.27,West,259,0.0,0.0,78,0.00,,,0.00,WUHU216WMR968SP,2013-01-20 05:28:00,
2013-01-19 21:33:00,30.6,24.6,30.27,West,259,0.0,0.0,78,0.00,,,0.00,WUHU216WMR968SP,2013-01-20 05:33:00,
2013-01-19 21:38:00,30.6,24.6,30.27,West,259,0.0,0.0,78,0.00,,,0.00,WUHU216WMR968SP,2013-01-20 05:38:00,
2013-01-19 21:43:00,30.6,24.6,30.27,West,259,0.0,0.0,78,0.00,,,0.00,WUHU216WMR968SP,2013-01-20 05:43:00,
2013-01-19 21:48:00,30.6,24.6,30.27,West,259,0.0,0.0,78,0.00,,,0.00,WUHU216WMR968SP,2013-01-20 05:48:00,
2013-01-19 21:53:00,30.6,24.3,30.27,West,259,0.0,0.0,77,0.00,,,0.00,WUHU216WMR968SP,2013-01-20 05:53:00,
2013-01-19 21:58:00,30.6,24.3,30.27,West,259,0.0,0.0,77,0.00,,,0.00,WUHU216WMR968SP,2013-01-20 05:58:00,
2013-01-19 22:03:00,30.6,24.3,30.27,West,259,0.0,0.0,77,0.00,,,0.00,WUHU216WMR968SP,2013-01-20 06:03:00,
2013-01-19 22:08:00,30.4,24.1,30.27,West,259,0.0,0.0,77,0.00,,,0.00,WUHU216WMR968SP,2013-01-20 06:08:00,
2013-01-19 22:13:00,30.4,24.1,30.27,West,259,0.0,0.0,77,0.00,,,0.00,WUHU216WMR968SP,2013-01-20 06:13:00,
2013-01-19 22:18:00,30.4,24.1,30.27,West,259,0.0,0.0,77,0.00,,,0.00,WUHU216WMR968SP,2013-01-20 06:18:00,
2013-01-19 22:23:00,30.4,24.1,30.27,West,259,0.0,0.0,77,0.00,,,0.00,WUHU216WMR968SP,2013-01-20 06:23:00,
2013-01-19 22:28:00,30.4,24.1,30.27,West,259,0.0,0.0,77,0.00,,,0.00,WUHU216WMR968SP,2013-01-20 06:28:00,
2013-01-19 22:33:00,30.2,24.2,30.27,WSW,246,0.0,0.0,78,0.00,,,0.00,WUHU216WMR968SP,2013-01-20 06:33:00,
2013-01-19 22:38:00,30.0,24.0,30.27,WSW,246,0.0,0.0,78,0.00,,,0.00,WUHU216WMR968SP,2013-01-20 06:38:00,
2013-01-19 22:43:00,30.0,24.0,30.27,WSW,246,0.0,0.0,78,0.00,,,0.00,WUHU216WMR968SP,2013-01-20 06:43:00,
2013-01-19 22:48:00,30.0,24.0,30.27,WSW,246,0.0,0.0,78,0.00,,,0.00,WUHU216WMR968SP,2013-01-20 06:48:00,
2013-01-19 22:53:00,30.0,24.0,30.27,South,173,0.0,3.1,78,0.00,,,0.00,WUHU216WMR968SP,2013-01-20 06:53:00,
2013-01-19 22:58:00,29.8,23.8,30.27,South,172,0.0,3.1,78,0.00,,,0.00,WUHU216WMR968SP,2013-01-20 06:58:00,
2013-01-19 23:03:00,29.7,23.7,30.27,South,173,0.0,0.0,78,0.00,,,0.00,WUHU216WMR968SP,2013-01-20 07:03:00,
2013-01-19 23:08:00,29.7,23.7,30.27,South,173,0.0,0.0,78,0.00,,,0.00,WUHU216WMR968SP,2013-01-20 07:08:00,
2013-01-19 23:13:00,29.7,23.7,30.27,South,173,0.0,0.0,78,0.00,,,0.00,WUHU216WMR968SP,2013-01-20 07:13:00,
2013-01-19 23:18:00,29.7,23.7,30.27,SSW,194,2.2,3.1,78,0.00,,,0.00,WUHU216WMR968SP,2013-01-20 07:18:00,
2013-01-19 23:23:00,29.5,23.5,30.27,SSW,193,0.0,3.1,78,0.00,,,0.00,WUHU216WMR968SP,2013-01-20 07:23:00,
2013-01-19 23:28:00,29.5,23.5,30.27,SSW,194,0.0,2.2,78,0.00,,,0.00,WUHU216WMR968SP,2013-01-20 07:28:00,
2013-01-19 23:33:00,29.3,23.3,30.27,SSW,193,0.0,0.0,78,0.00,,,0.00,WUHU216WMR968SP,2013-01-20 07:33:00,
2013-01-19 23:38:00,29.3,23.3,30.27,SSW,194,0.0,0.0,78,0.00,,,0.00,WUHU216WMR968SP,2013-01-20 07:38:00,
2013-01-19 23:43:00,29.3,23.3,30.27,SSW,193,0.0,0.0,78,0.00,,,0.00,WUHU216WMR968SP,2013-01-20 07:43:00,
2013-01-19 23:48:00,29.3,23.3,30.27,SSW,193,0.0,0.0,78,0.00,,,0.00,WUHU216WMR968SP,2013-01-20 07:48:00,
2013-01-19 23:53:00,29.3,23.0,30.27,SSW,193,0.0,0.0,77,0.00,,,0.00,WUHU216WMR968SP,2013-01-20 07:53:00,
2013-01-19 23:58:00,29.3,23.0,30.27,SSW,194,0.0,0.0,77,0.00,,,0.00,WUHU216WMR968SP,2013-01-20 07:58:00,